Time;durP1;ratioP1;P1;durP2;ratioP2;P2;SDS_P1;SDS_P2;PMS_P1;PMS_P2;Temp;Humidity;BMP_temperature;BMP_pressure;BME280_temperature;BME280_humidity;BME280_pressure;Samples;Min_cycle;Max_cycle;Signal;HPM_P1;HPM_P2
2021/01/16 00:00:27;;;;;;;8.25;3.70;;;-1.70;99.90;;;;;;5021448;28;20072;-76
2021/01/16 00:02:53;;;;;;;5.97;3.35;;;-1.70;99.90;;;;;;5022838;28;20060;-76
2021/01/16 00:05:21;;;;;;;6.95;3.72;;;-1.70;99.90;;;;;;5017364;28;20100;-76
2021/01/16 00:07:58;;;;;;;6.43;3.35;;;-1.70;99.90;;;;;;5025937;28;20083;-75
2021/01/16 00:10:23;;;;;;;6.90;3.00;;;-1.70;99.90;;;;;;5022508;28;20112;-75
2021/01/16 00:12:49;;;;;;;5.28;3.03;;;-1.70;99.90;;;;;;5017568;28;20445;-75
2021/01/16 00:15:16;;;;;;;3.88;2.53;;;-1.70;99.90;;;;;;5016972;28;20034;-76
2021/01/16 00:17:42;;;;;;;3.45;2.38;;;-1.70;99.90;;;;;;5024605;28;20101;-76
2021/01/16 00:20:12;;;;;;;6.63;3.05;;;-1.70;99.90;;;;;;5025321;28;20033;-76
2021/01/16 00:22:50;;;;;;;5.55;3.03;;;-1.70;99.90;;;;;;5014370;28;20041;-76
2021/01/16 00:25:16;;;;;;;5.10;2.90;;;-1.70;99.90;;;;;;5018695;28;20601;-74
2021/01/16 00:27:42;;;;;;;4.95;3.10;;;-1.70;99.90;;;;;;5024279;28;20156;-76
2021/01/16 00:30:10;;;;;;;6.07;3.08;;;-1.70;99.90;;;;;;5031304;28;20036;-76
2021/01/16 00:32:37;;;;;;;6.35;3.35;;;-1.70;99.90;;;;;;5013540;28;20545;-76
2021/01/16 00:35:08;;;;;;;5.68;2.88;;;-1.70;99.90;;;;;;5015055;28;20038;-74
2021/01/16 00:37:34;;;;;;;7.43;3.40;;;-1.70;99.90;;;;;;5024695;28;20072;-75
2021/01/16 00:40:03;;;;;;;6.85;3.45;;;-1.70;99.90;;;;;;5027833;28;20029;-75
2021/01/16 00:42:29;;;;;;;6.88;3.28;;;-1.70;99.90;;;;;;5023073;28;20026;-74
2021/01/16 00:44:54;;;;;;;8.50;3.95;;;-1.80;99.90;;;;;;5056889;23;20020;-88
2021/01/16 00:47:20;;;;;;;6.00;3.00;;;-1.80;99.90;;;;;;5013056;28;20036;-88
2021/01/16 00:49:46;;;;;;;6.88;3.45;;;-1.70;99.90;;;;;;5016633;28;20040;-89
2021/01/16 00:52:12;;;;;;;6.38;3.50;;;-1.70;99.90;;;;;;5017348;28;20045;-88
2021/01/16 00:54:38;;;;;;;5.88;3.30;;;-1.70;99.90;;;;;;5018100;28;20079;-90
2021/01/16 00:57:08;;;;;;;4.93;2.92;;;-1.70;99.90;;;;;;5020532;28;20083;-88
2021/01/16 00:59:35;;;;;;;5.10;3.10;;;-1.70;99.90;;;;;;5019560;28;20032;-90
2021/01/16 01:02:03;;;;;;;5.95;3.13;;;-1.70;99.90;;;;;;4999095;28;20029;-89
2021/01/16 01:04:29;;;;;;;5.00;3.08;;;-1.80;99.90;;;;;;5016175;28;20103;-89
2021/01/16 01:06:54;;;;;;;4.93;2.67;;;-1.80;99.90;;;;;;5015799;28;20045;-89
2021/01/16 01:09:20;;;;;;;5.22;2.90;;;-1.70;99.90;;;;;;4999343;28;20136;-90
2021/01/16 01:11:46;;;;;;;7.15;2.85;;;-1.70;99.90;;;;;;5031548;28;20037;-87
2021/01/16 01:14:12;;;;;;;5.93;3.13;;;-1.70;99.90;;;;;;5031685;28;20469;-88
2021/01/16 01:16:39;;;;;;;5.13;3.13;;;-1.70;99.90;;;;;;5031900;28;20120;-89
2021/01/16 01:19:05;;;;;;;3.72;2.83;;;-1.80;99.90;;;;;;5015981;28;20033;-89
2021/01/16 01:21:31;;;;;;;6.60;3.03;;;-1.70;99.90;;;;;;4999460;28;20405;-90
2021/01/16 01:23:56;;;;;;;6.95;3.83;;;-1.70;99.90;;;;;;5014032;28;20408;-89
2021/01/16 01:26:22;;;;;;;7.88;3.40;;;-1.70;99.90;;;;;;4999105;28;20052;-88
2021/01/16 01:28:48;;;;;;;5.95;3.10;;;-1.70;99.90;;;;;;5015680;28;20029;-89
2021/01/16 01:31:14;;;;;;;5.72;3.10;;;-1.70;99.90;;;;;;5015462;28;20112;-90
2021/01/16 01:33:39;;;;;;;6.07;3.10;;;-1.70;99.90;;;;;;4997687;28;20037;-89
2021/01/16 01:36:05;;;;;;;5.55;3.20;;;-1.70;99.90;;;;;;5015319;28;20033;-88
2021/01/16 01:38:32;;;;;;;5.15;3.15;;;-1.80;99.90;;;;;;5015118;28;20511;-89
2021/01/16 01:41:01;;;;;;;7.55;3.80;;;-1.70;99.90;;;;;;5015212;28;20033;-90
2021/01/16 01:43:27;;;;;;;7.60;3.33;;;-1.70;99.90;;;;;;5030142;28;20405;-87
2021/01/16 01:45:53;;;;;;;8.15;3.92;;;-1.70;99.90;;;;;;5015352;28;20041;-87
2021/01/16 01:48:19;;;;;;;9.32;4.57;;;-1.70;99.90;;;;;;5017980;28;20659;-88
2021/01/16 01:50:44;;;;;;;7.43;4.05;;;-1.70;99.90;;;;;;5051754;28;20036;-90
2021/01/16 01:53:12;;;;;;;6.60;3.67;;;-1.80;99.90;;;;;;5033717;28;20100;-89
2021/01/16 01:55:40;;;;;;;7.88;3.47;;;-1.80;99.90;;;;;;5034730;28;20187;-88
2021/01/16 01:58:07;;;;;;;6.07;3.35;;;-1.70;99.90;;;;;;5029758;28;20037;-88
2021/01/16 02:00:33;;;;;;;6.72;3.33;;;-1.70;99.90;;;;;;5042444;28;20029;-87
2021/01/16 02:03:02;;;;;;;7.25;3.42;;;-1.80;99.90;;;;;;5007859;28;20040;-88
2021/01/16 02:05:27;;;;;;;8.55;3.92;;;-1.80;99.90;;;;;;5034374;28;20048;-87
2021/01/16 02:07:53;;;;;;;7.50;3.30;;;-1.80;99.90;;;;;;5033152;28;20033;-89
2021/01/16 02:10:24;;;;;;;6.13;3.28;;;-1.80;99.90;;;;;;5017353;28;20062;-88
2021/01/16 02:12:52;;;;;;;5.82;3.20;;;-1.80;99.90;;;;;;5033130;28;20534;-88
2021/01/16 02:15:30;;;;;;;6.75;3.22;;;-1.80;99.90;;;;;;5017786;28;20024;-87
2021/01/16 02:18:05;;;;;;;5.15;3.10;;;-1.80;99.90;;;;;;5050748;28;20069;-89
2021/01/16 02:20:35;;;;;;;6.18;3.30;;;-1.80;99.90;;;;;;5034258;28;20044;-88
2021/01/16 02:23:17;;;;;;;6.43;3.78;;;-1.80;99.90;;;;;;5032966;28;20485;-90
2021/01/16 02:25:43;;;;;;;6.60;3.78;;;-1.80;99.90;;;;;;5034101;28;20036;-88
2021/01/16 02:28:12;;;;;;;6.63;3.47;;;-1.80;99.90;;;;;;5033649;28;20067;-88
2021/01/16 02:30:42;;;;;;;7.63;3.75;;;-1.80;99.90;;;;;;5034614;28;20041;-88
2021/01/16 02:33:11;;;;;;;6.95;3.90;;;-1.80;99.90;;;;;;5049312;28;20043;-89
2021/01/16 02:35:49;;;;;;;7.53;3.70;;;-1.80;99.90;;;;;;5033900;28;20079;-88
2021/01/16 02:38:27;;;;;;;6.88;3.85;;;-1.80;99.90;;;;;;5033347;28;20086;-87
2021/01/16 02:41:00;;;;;;;6.28;3.38;;;-1.80;99.90;;;;;;5033604;28;20124;-89
2021/01/16 02:43:35;;;;;;;8.02;3.55;;;-1.70;99.90;;;;;;5032219;28;20041;-89
2021/01/16 02:46:11;;;;;;;6.25;3.08;;;-1.80;99.90;;;;;;5017166;28;20037;-86
2021/01/16 02:48:48;;;;;;;6.88;3.47;;;-1.80;99.90;;;;;;5033658;28;20032;-87
2021/01/16 02:51:24;;;;;;;9.45;3.67;;;-1.80;99.90;;;;;;5033550;28;20029;-89
2021/01/16 02:53:51;;;;;;;7.40;3.45;;;-1.80;99.90;;;;;;5028812;28;20401;-89
2021/01/16 02:56:18;;;;;;;9.73;4.43;;;-1.80;99.90;;;;;;5016803;28;20544;-87
2021/01/16 02:58:44;;;;;;;8.55;3.50;;;-1.80;99.90;;;;;;5016673;28;20439;-89
2021/01/16 03:01:10;;;;;;;7.47;3.80;;;-1.80;99.90;;;;;;5016986;28;20033;-88
2021/01/16 03:03:38;;;;;;;9.43;4.22;;;-1.80;99.90;;;;;;5032405;28;20059;-88
2021/01/16 03:06:04;;;;;;;6.70;3.80;;;-1.70;99.90;;;;;;5017199;28;20108;-88
2021/01/16 03:08:30;;;;;;;7.13;3.50;;;-1.70;99.90;;;;;;5033007;28;20029;-89
2021/01/16 03:10:58;;;;;;;7.43;3.47;;;-1.70;99.90;;;;;;5033037;28;20098;-88
2021/01/16 03:13:25;;;;;;;8.52;3.78;;;-1.70;99.90;;;;;;5032321;28;20033;-88
2021/01/16 03:15:52;;;;;;;9.05;4.00;;;-1.80;99.90;;;;;;5033471;28;20036;-88
2021/01/16 03:18:23;;;;;;;9.20;4.03;;;-1.70;99.90;;;;;;5016132;28;20036;-88
2021/01/16 03:20:49;;;;;;;7.18;3.58;;;-1.80;99.90;;;;;;5050127;28;20087;-89
2021/01/16 03:23:15;;;;;;;7.65;3.67;;;-1.80;99.90;;;;;;5014980;28;20045;-89
2021/01/16 03:25:41;;;;;;;8.77;3.90;;;-1.80;99.90;;;;;;5015907;28;20044;-90
2021/01/16 03:28:07;;;;;;;8.90;4.45;;;-1.80;99.90;;;;;;5022395;28;20042;-89
2021/01/16 03:30:33;;;;;;;7.45;3.58;;;-1.90;99.90;;;;;;5003620;28;20465;-88
2021/01/16 03:32:59;;;;;;;8.25;3.85;;;-1.90;99.90;;;;;;5019845;28;20116;-89
2021/01/16 03:35:26;;;;;;;9.55;4.10;;;-1.80;99.90;;;;;;5033144;28;20485;-89
2021/01/16 03:37:53;;;;;;;9.65;3.75;;;-1.80;99.90;;;;;;5032182;28;20029;-89
2021/01/16 03:40:19;;;;;;;8.25;3.97;;;-1.90;99.90;;;;;;5033140;28;20079;-88
2021/01/16 03:42:45;;;;;;;10.10;4.07;;;-1.90;99.90;;;;;;5031404;28;20427;-88
2021/01/16 03:45:19;;;;;;;7.70;3.63;;;-1.90;99.90;;;;;;5017009;28;20043;-88
2021/01/16 03:47:46;;;;;;;8.13;4.03;;;-1.80;99.90;;;;;;5032651;28;20393;-89
2021/01/16 03:50:12;;;;;;;9.25;3.97;;;-1.90;99.90;;;;;;5016651;28;20033;-89
2021/01/16 03:52:39;;;;;;;7.93;3.92;;;-1.90;99.90;;;;;;5031147;28;20040;-89
2021/01/16 03:55:06;;;;;;;5.68;3.45;;;-1.90;99.90;;;;;;5032775;28;20501;-87
2021/01/16 03:57:32;;;;;;;7.00;3.15;;;-1.90;99.90;;;;;;5000306;28;20043;-89
2021/01/16 03:59:58;;;;;;;7.25;3.40;;;-1.90;99.90;;;;;;5032971;28;20025;-89
2021/01/16 04:02:23;;;;;;;7.90;3.72;;;-2.00;99.90;;;;;;5031260;28;20079;-88
2021/01/16 04:04:50;;;;;;;6.72;3.40;;;-2.00;99.90;;;;;;5032925;28;20044;-87
2021/01/16 04:07:16;;;;;;;6.05;3.47;;;-1.90;99.90;;;;;;5032065;28;20135;-88
2021/01/16 04:09:44;;;;;;;6.57;3.35;;;-2.00;99.90;;;;;;5032672;28;20041;-88
2021/01/16 04:12:10;;;;;;;9.23;3.75;;;-2.00;99.90;;;;;;5034327;28;20079;-88
2021/01/16 04:14:36;;;;;;;7.35;4.00;;;-1.90;99.90;;;;;;5020081;28;20234;-89
2021/01/16 04:17:06;;;;;;;7.28;3.72;;;-1.90;99.90;;;;;;5036328;28;20039;-87
2021/01/16 04:19:32;;;;;;;7.28;3.88;;;-2.00;99.90;;;;;;5036071;28;20481;-88
2021/01/16 04:21:59;;;;;;;7.00;3.58;;;-2.00;99.90;;;;;;5034756;28;20036;-89
2021/01/16 04:24:25;;;;;;;6.00;3.03;;;-2.00;99.90;;;;;;5036334;28;20445;-89
2021/01/16 04:26:52;;;;;;;7.22;3.55;;;-2.00;99.90;;;;;;5036303;28;20051;-88
2021/01/16 04:29:17;;;;;;;5.78;3.53;;;-2.00;99.90;;;;;;5052925;28;20040;-89
2021/01/16 04:31:43;;;;;;;7.20;3.08;;;-2.00;99.90;;;;;;5036038;28;20022;-89
2021/01/16 04:34:09;;;;;;;7.38;3.50;;;-2.00;99.90;;;;;;5035595;28;20066;-88
2021/01/16 04:36:35;;;;;;;7.00;3.67;;;-2.10;99.90;;;;;;5037002;28;20112;-88
2021/01/16 04:39:01;;;;;;;7.93;3.10;;;-2.10;99.90;;;;;;5035879;28;20179;-88
2021/01/16 04:41:29;;;;;;;7.35;2.95;;;-2.10;99.90;;;;;;5019342;28;20041;-88
2021/01/16 04:43:55;;;;;;;5.78;3.15;;;-2.20;99.90;;;;;;5051306;28;20029;-88
2021/01/16 04:46:22;;;;;;;8.82;3.65;;;-2.10;99.90;;;;;;5019317;28;20033;-89
2021/01/16 04:48:54;;;;;;;9.50;4.25;;;-2.10;99.90;;;;;;5035544;28;20447;-89
2021/01/16 04:51:23;;;;;;;4.28;2.53;;;-2.20;99.90;;;;;;5052712;28;20033;-88
2021/01/16 04:53:50;;;;;;;6.72;3.28;;;-2.20;99.90;;;;;;5034138;28;20032;-87
2021/01/16 04:56:16;;;;;;;5.28;2.85;;;-2.20;99.90;;;;;;5035516;28;20396;-87
2021/01/16 04:58:42;;;;;;;5.80;3.33;;;-2.20;99.90;;;;;;5002529;28;20099;-88
2021/01/16 05:01:09;;;;;;;6.35;3.15;;;-2.20;99.90;;;;;;5001254;28;20021;-89
2021/01/16 05:03:38;;;;;;;7.20;3.40;;;-2.20;99.90;;;;;;5014446;28;20486;-88
2021/01/16 05:06:08;;;;;;;7.20;3.55;;;-2.20;99.90;;;;;;5015205;28;20051;-89
2021/01/16 05:08:36;;;;;;;6.97;3.38;;;-2.20;99.90;;;;;;5031932;28;20038;-88
2021/01/16 05:11:06;;;;;;;6.95;3.53;;;-2.20;99.90;;;;;;5015554;28;20021;-90
2021/01/16 05:13:44;;;;;;;8.40;3.20;;;-2.30;99.90;;;;;;4997666;28;20037;-89
2021/01/16 05:16:14;;;;;;;8.48;4.05;;;-2.30;99.90;;;;;;4999286;28;20128;-87
2021/01/16 05:18:42;;;;;;;5.97;3.05;;;-2.30;99.90;;;;;;4999391;28;20095;-88
2021/01/16 05:21:11;;;;;;;5.90;3.35;;;-2.30;99.90;;;;;;5015161;28;20053;-88
2021/01/16 05:23:43;;;;;;;6.22;2.90;;;-2.30;99.90;;;;;;5014044;28;20276;-88
2021/01/16 05:26:09;;;;;;;7.63;2.72;;;-2.40;99.90;;;;;;5029723;28;20507;-89
2021/01/16 05:28:37;;;;;;;7.32;3.17;;;-2.30;99.90;;;;;;5051458;28;20061;-88
2021/01/16 05:31:06;;;;;;;9.35;3.42;;;-2.40;99.90;;;;;;5018671;28;20182;-89
2021/01/16 05:33:39;;;;;;;9.52;3.78;;;-2.40;99.90;;;;;;5017196;28;20045;-87
2021/01/16 05:36:07;;;;;;;6.80;3.33;;;-2.30;99.90;;;;;;5017946;28;20123;-87
2021/01/16 05:38:38;;;;;;;6.15;3.20;;;-2.40;99.90;;;;;;5034781;28;20032;-88
2021/01/16 05:41:12;;;;;;;6.50;3.45;;;-2.30;99.90;;;;;;5034727;28;20033;-88
2021/01/16 05:43:42;;;;;;;6.65;3.40;;;-2.30;99.90;;;;;;5016852;28;20068;-86
2021/01/16 05:46:14;;;;;;;5.65;2.65;;;-2.30;99.90;;;;;;5051358;28;20064;-88
2021/01/16 05:48:41;;;;;;;7.28;3.33;;;-2.30;99.90;;;;;;5034910;28;20051;-88
2021/01/16 05:51:07;;;;;;;6.03;3.20;;;-2.30;99.90;;;;;;5034581;28;20068;-87
2021/01/16 05:53:34;;;;;;;8.05;3.65;;;-2.30;99.90;;;;;;5016515;28;20439;-87
2021/01/16 05:56:01;;;;;;;6.80;2.65;;;-2.30;99.90;;;;;;5034380;28;20072;-87
2021/01/16 05:58:33;;;;;;;6.72;3.08;;;-2.40;99.90;;;;;;5034465;28;20021;-88
2021/01/16 06:01:07;;;;;;;7.50;3.00;;;-2.40;99.90;;;;;;5035004;28;20384;-87
2021/01/16 06:03:37;;;;;;;6.47;2.50;;;-2.40;99.90;;;;;;5013273;28;20486;-87
2021/01/16 06:06:10;;;;;;;6.88;3.47;;;-2.50;99.90;;;;;;5014074;28;20075;-89
2021/01/16 06:08:56;;;;;;;5.50;3.15;;;-2.40;99.90;;;;;;5014148;28;20057;-88
2021/01/16 06:11:22;;;;;;;5.00;3.00;;;-2.50;99.90;;;;;;5030547;28;20092;-89
2021/01/16 06:13:50;;;;;;;6.05;3.38;;;-2.50;99.90;;;;;;5013194;28;20069;-89
2021/01/16 06:16:20;;;;;;;8.25;3.67;;;-2.50;99.90;;;;;;5030562;28;20040;-88
2021/01/16 06:18:56;;;;;;;6.25;3.35;;;-2.50;99.90;;;;;;5014140;28;20453;-88
2021/01/16 06:21:29;;;;;;;;;;;-2.50;99.90;;;;;;5014702;28;20029;-88
2021/01/16 06:23:57;;;;;;;5.90;2.80;;;-2.50;99.90;;;;;;5012689;28;20300;-87
2021/01/16 06:26:24;;;;;;;5.47;3.13;;;-2.60;99.90;;;;;;5014055;28;20464;-86
2021/01/16 06:28:57;;;;;;;5.88;3.45;;;-2.60;99.90;;;;;;5013910;28;20120;-87
2021/01/16 06:31:27;;;;;;;6.07;3.22;;;-2.60;99.90;;;;;;5030634;28;20033;-87
2021/01/16 06:33:58;;;;;;;7.60;3.88;;;-2.70;99.90;;;;;;5011142;28;20116;-88
2021/01/16 06:36:36;;;;;;;8.93;3.83;;;-2.70;99.90;;;;;;5013705;28;20095;-87
2021/01/16 06:39:07;;;;;;;7.32;3.67;;;-2.70;99.90;;;;;;4997094;28;20053;-87
2021/01/16 06:41:37;;;;;;;6.63;3.30;;;-2.80;99.90;;;;;;5013968;28;20059;-87
2021/01/16 06:44:15;;;;;;;7.45;3.17;;;-2.80;99.90;;;;;;5029473;28;20039;-88
2021/01/16 06:46:45;;;;;;;7.35;3.20;;;-2.80;99.90;;;;;;5027476;28;20546;-87
2021/01/16 06:49:25;;;;;;;7.65;3.70;;;-2.80;99.90;;;;;;5041076;28;20036;-89
2021/01/16 06:51:52;;;;;;;6.63;3.47;;;-2.70;99.90;;;;;;5016224;28;20052;-89
2021/01/16 06:54:31;;;;;;;6.30;3.15;;;-2.80;99.90;;;;;;5016558;28;20033;-87
2021/01/16 06:57:12;;;;;;;6.22;2.90;;;-2.80;99.90;;;;;;5049882;28;20064;-89
2021/01/16 06:59:42;;;;;;;6.50;3.58;;;-2.80;99.90;;;;;;5035003;28;20928;-88
2021/01/16 07:02:32;;;;;;;7.13;3.08;;;-2.70;99.90;;;;;;5000570;28;20034;-88
2021/01/16 07:05:00;;;;;;;5.32;3.00;;;-2.80;99.90;;;;;;5013107;28;20057;-88
2021/01/16 07:07:36;;;;;;;7.75;3.60;;;-2.80;99.90;;;;;;5007928;28;20082;-89
2021/01/16 07:10:04;;;;;;;7.25;3.55;;;-2.80;99.90;;;;;;4996737;28;20029;-89
2021/01/16 07:12:30;;;;;;;9.80;3.65;;;-2.80;99.90;;;;;;5011722;28;20026;-88
2021/01/16 07:14:56;;;;;;;6.90;3.35;;;-2.80;99.90;;;;;;5023695;28;20242;-88
2021/01/16 07:17:27;;;;;;;5.68;3.33;;;-2.80;99.90;;;;;;5016211;28;20025;-89
2021/01/16 07:19:55;;;;;;;5.57;3.58;;;-2.90;99.90;;;;;;5016517;28;20527;-87
2021/01/16 07:22:30;;;;;;;6.85;3.67;;;-2.90;99.90;;;;;;5031213;28;20069;-88
2021/01/16 07:24:58;;;;;;;6.20;3.13;;;-2.80;99.90;;;;;;5032576;28;20029;-87
2021/01/16 07:27:27;;;;;;;5.53;3.10;;;-2.80;99.90;;;;;;5049675;28;20440;-87
2021/01/16 07:30:02;;;;;;;9.15;3.22;;;-2.80;99.90;;;;;;5032665;28;20090;-88
2021/01/16 07:32:49;;;;;;;7.78;4.40;;;-2.80;99.90;;;;;;5047793;28;20064;-88
2021/01/16 07:35:19;;;;;;;7.57;4.10;;;-2.70;99.90;;;;;;5033015;28;20029;-89
2021/01/16 07:37:46;;;;;;;7.38;3.22;;;-2.70;99.90;;;;;;5032870;28;20041;-89
2021/01/16 07:40:17;;;;;;;7.65;3.40;;;-2.70;99.90;;;;;;5032596;28;20024;-88
2021/01/16 07:42:52;;;;;;;7.40;3.65;;;-2.70;99.90;;;;;;5028177;28;20025;-90
2021/01/16 07:45:32;;;;;;;5.35;2.97;;;-2.70;99.90;;;;;;5014242;28;20041;-87
2021/01/16 07:48:02;;;;;;;7.65;3.72;;;-2.70;99.90;;;;;;5016966;28;20405;-89
2021/01/16 07:50:30;;;;;;;6.68;3.97;;;-2.60;99.90;;;;;;5017252;28;20389;-89
2021/01/16 07:53:05;;;;;;;6.28;3.30;;;-2.70;99.90;;;;;;5015639;28;20128;-88
2021/01/16 07:55:34;;;;;;;;;;;-2.70;99.90;;;;;;5017507;28;20075;-89
2021/01/16 07:58:08;;;;;;;6.72;3.83;;;-2.70;99.90;;;;;;5033116;28;20017;-87
2021/01/16 08:00:40;;;;;;;8.45;3.58;;;-2.60;99.90;;;;;;5035803;28;20554;-88
2021/01/16 08:03:38;;;;;;;7.03;3.88;;;-2.60;99.90;;;;;;5018534;28;20037;-88
2021/01/16 08:06:25;;;;;;;8.48;3.67;;;-2.60;99.90;;;;;;5024788;28;20082;-90
2021/01/16 08:09:03;;;;;;;6.78;3.70;;;-2.60;99.90;;;;;;5032507;28;20083;-87
2021/01/16 08:11:34;;;;;;;9.40;4.47;;;-2.60;99.90;;;;;;5032934;28;20211;-88
2021/01/16 08:14:02;;;;;;;10.27;4.85;;;-2.60;99.90;;;;;;5036412;28;20469;-90
2021/01/16 08:16:28;;;;;;;11.68;5.20;;;-2.60;99.90;;;;;;5019935;28;20404;-91
2021/01/16 08:19:12;;;;;;;11.23;5.25;;;-2.70;99.90;;;;;;5035990;28;20028;-89
2021/01/16 08:21:54;;;;;;;12.52;5.50;;;-2.60;99.90;;;;;;5036202;28;20085;-89
2021/01/16 08:24:21;;;;;;;9.95;5.22;;;-2.60;99.90;;;;;;5050492;28;20451;-90
2021/01/16 08:27:00;;;;;;;12.43;6.03;;;-2.60;99.90;;;;;;5035680;28;20025;-87
2021/01/16 08:29:32;;;;;;;11.68;5.95;;;-2.60;99.90;;;;;;5028665;28;20119;-88
2021/01/16 08:32:07;;;;;;;12.38;5.85;;;-2.60;99.90;;;;;;5049716;28;20086;-90
2021/01/16 08:34:47;;;;;;;14.17;6.47;;;-2.60;99.90;;;;;;5032490;28;20045;-89
2021/01/16 08:37:38;;;;;;;10.73;6.30;;;-2.60;99.90;;;;;;5035238;28;20271;-89
2021/01/16 08:40:05;;;;;;;10.75;4.93;;;-2.60;99.90;;;;;;5026330;28;20021;-87
2021/01/16 08:42:31;;;;;;;13.05;5.57;;;-2.60;99.90;;;;;;5028896;28;20554;-89
2021/01/16 08:44:58;;;;;;;11.57;5.47;;;-2.60;99.90;;;;;;5034454;28;20036;-89
2021/01/16 08:47:24;;;;;;;10.60;4.95;;;-2.60;99.90;;;;;;5031673;28;20061;-89
2021/01/16 08:49:50;;;;;;;10.02;4.97;;;-2.50;99.90;;;;;;5034328;28;20060;-88
2021/01/16 08:52:34;;;;;;;9.25;4.82;;;-2.50;99.90;;;;;;5017016;28;20067;-87
2021/01/16 08:55:03;;;;;;;8.25;3.97;;;-2.40;99.90;;;;;;5042291;28;20374;-88
2021/01/16 08:57:33;;;;;;;8.57;4.35;;;-2.40;99.90;;;;;;5044133;28;20025;-89
2021/01/16 09:00:24;;;;;;;9.38;4.28;;;-2.30;99.90;;;;;;5021782;28;20029;-88
2021/01/16 09:03:20;;;;;;;8.20;3.78;;;-2.30;99.90;;;;;;5030066;28;20041;-89
2021/01/16 09:05:59;;;;;;;8.95;3.88;;;-2.30;99.90;;;;;;5040171;28;20053;-89
2021/01/16 09:08:28;;;;;;;7.90;3.50;;;-2.20;99.90;;;;;;5034409;28;20036;-88
2021/01/16 09:11:10;;;;;;;7.97;3.97;;;-2.20;99.90;;;;;;5032889;28;20037;-89
2021/01/16 09:13:41;;;;;;;9.80;4.55;;;-2.10;99.90;;;;;;5009384;28;20033;-88
2021/01/16 09:16:29;;;;;;;10.00;4.28;;;-2.10;99.90;;;;;;5035074;28;20067;-89
2021/01/16 09:18:55;;;;;;;6.53;3.40;;;-2.10;99.90;;;;;;5019469;28;20104;-88
2021/01/16 09:21:25;;;;;;;8.38;4.32;;;-2.10;99.90;;;;;;5023200;28;20108;-89
2021/01/16 09:23:51;;;;;;;9.63;4.22;;;-2.00;99.90;;;;;;5006425;28;20478;-88
2021/01/16 09:26:19;;;;;;;7.30;3.55;;;-2.00;99.90;;;;;;5044263;28;20037;-87
2021/01/16 09:29:01;;;;;;;9.18;4.82;;;-2.00;99.90;;;;;;5027758;28;20440;-90
2021/01/16 09:31:40;;;;;;;9.35;4.22;;;-2.00;99.90;;;;;;5033431;28;20044;-88
2021/01/16 09:34:13;;;;;;;7.97;3.30;;;-1.90;99.90;;;;;;5024420;28;20033;-89
2021/01/16 09:36:38;;;;;;;6.47;3.53;;;-1.90;99.90;;;;;;5032066;28;20084;-89
2021/01/16 09:39:06;;;;;;;9.40;3.88;;;-1.90;99.90;;;;;;5030570;28;20025;-88
2021/01/16 09:41:33;;;;;;;8.45;3.90;;;-1.90;99.90;;;;;;5029261;28;20389;-88
2021/01/16 09:43:59;;;;;;;7.05;3.67;;;-1.90;99.90;;;;;;5027906;28;20040;-89
2021/01/16 09:46:39;;;;;;;5.72;3.28;;;-1.90;99.90;;;;;;5021149;28;20132;-88
2021/01/16 09:49:07;;;;;;;8.02;3.63;;;-1.90;99.90;;;;;;5032422;28;20477;-88
2021/01/16 09:51:34;;;;;;;8.45;3.97;;;-1.90;99.90;;;;;;5016487;28;20452;-88
2021/01/16 09:54:13;;;;;;;7.00;3.53;;;-1.80;99.90;;;;;;5012756;28;20039;-86
2021/01/16 09:56:45;;;;;;;5.85;3.15;;;-1.80;99.90;;;;;;5048040;28;20489;-88
2021/01/16 09:59:24;;;;;;;7.68;3.30;;;-1.90;99.90;;;;;;5014547;28;20033;-88
2021/01/16 10:02:10;;;;;;;6.35;3.42;;;-1.90;99.90;;;;;;5029132;28;20025;-89
2021/01/16 10:04:39;;;;;;;8.48;3.90;;;-1.90;99.90;;;;;;5031319;28;20025;-89
2021/01/16 10:07:09;;;;;;;4.95;3.17;;;-1.80;99.90;;;;;;5027523;28;20082;-88
2021/01/16 10:09:47;;;;;;;6.43;3.20;;;-1.80;99.90;;;;;;5029969;28;20029;-88
2021/01/16 10:12:34;;;;;;;6.93;3.17;;;-1.80;99.90;;;;;;5026478;28;20036;-87
2021/01/16 10:15:06;;;;;;;6.85;3.15;;;-1.70;99.90;;;;;;5038243;28;20023;-87
2021/01/16 10:17:39;;;;;;;6.22;3.00;;;-1.70;99.90;;;;;;5017742;28;20079;-88
2021/01/16 10:20:12;;;;;;;5.63;2.97;;;-1.70;99.90;;;;;;5025345;28;20060;-89
2021/01/16 10:22:52;;;;;;;5.80;2.90;;;-1.60;99.90;;;;;;5026464;28;20032;-89
2021/01/16 10:25:21;;;;;;;7.72;3.47;;;-1.60;99.90;;;;;;5033150;28;20559;-87
2021/01/16 10:27:52;;;;;;;7.43;3.30;;;-1.60;99.90;;;;;;5019705;28;20834;-88
2021/01/16 10:30:24;;;;;;;6.28;3.35;;;-1.50;99.90;;;;;;5005780;28;20037;-86
2021/01/16 10:32:51;;;;;;;7.35;3.35;;;-1.40;99.90;;;;;;5033332;28;20041;-86
2021/01/16 10:35:23;;;;;;;6.22;3.20;;;-1.40;99.90;;;;;;5001815;28;20032;-86
2021/01/16 10:37:50;;;;;;;7.18;3.22;;;-1.40;99.90;;;;;;5018224;28;20031;-87
2021/01/16 10:40:19;;;;;;;5.68;3.20;;;-1.40;99.90;;;;;;5019387;28;20094;-87
2021/01/16 10:42:52;;;;;;;5.57;3.10;;;-1.30;99.90;;;;;;4999627;28;20132;-87
2021/01/16 10:45:19;;;;;;;6.13;3.25;;;-1.30;99.90;;;;;;5004945;28;20036;-87
2021/01/16 10:47:46;;;;;;;7.97;3.35;;;-1.20;99.90;;;;;;5018767;28;20040;-87
2021/01/16 10:50:27;;;;;;;9.23;4.00;;;-1.20;99.90;;;;;;5012712;28;20111;-87
2021/01/16 10:53:04;;;;;;;9.02;4.05;;;-1.30;99.90;;;;;;5016398;28;20521;-88
2021/01/16 10:55:55;;;;;;;7.32;3.72;;;-1.30;99.90;;;;;;5031356;28;20024;-89
2021/01/16 10:58:25;;;;;;;6.57;3.85;;;-1.30;99.90;;;;;;4999717;28;20120;-88
2021/01/16 11:00:58;;;;;;;7.40;3.45;;;-1.30;99.90;;;;;;5017286;28;20631;-87
2021/01/16 11:03:32;;;;;;;6.25;3.33;;;-1.40;99.90;;;;;;5004782;28;20041;-87
2021/01/16 11:06:08;;;;;;;7.15;3.50;;;-1.30;99.90;;;;;;5000144;28;20648;-87
2021/01/16 11:08:36;;;;;;;6.82;4.07;;;-1.30;99.90;;;;;;5028195;28;20032;-88
2021/01/16 11:11:22;;;;;;;8.07;3.90;;;-1.30;99.90;;;;;;5003782;28;20640;-86
2021/01/16 11:13:49;;;;;;;7.00;4.00;;;-1.30;99.90;;;;;;5017461;28;20099;-86
2021/01/16 11:16:24;;;;;;;6.80;3.53;;;-1.30;99.90;;;;;;5022970;28;20083;-85
2021/01/16 11:18:51;;;;;;;6.50;3.40;;;-1.30;99.90;;;;;;5020690;28;20043;-87
2021/01/16 11:21:51;;;;;;;7.85;4.03;;;-1.30;99.90;;;;;;5001858;28;20025;-88
2021/01/16 11:24:55;;;;;;;9.32;3.80;;;-1.50;99.90;;;;;;5000093;28;20120;-88
2021/01/16 11:27:30;;;;;;;9.43;4.53;;;-1.50;99.90;;;;;;5021338;28;20027;-89
2021/01/16 11:30:14;;;;;;;7.95;4.13;;;-1.50;99.90;;;;;;5021469;28;20146;-90
2021/01/16 11:32:39;;;;;;;8.75;4.30;;;-1.60;99.90;;;;;;5001176;28;20052;-87
2021/01/16 11:35:13;;;;;;;7.65;3.95;;;-1.60;99.90;;;;;;5020283;28;20048;-89
2021/01/16 11:37:45;;;;;;;7.32;3.97;;;-1.60;99.90;;;;;;5000449;28;20025;-89
2021/01/16 11:40:31;;;;;;;7.28;3.17;;;-1.60;99.90;;;;;;5020038;28;20049;-90
2021/01/16 11:43:01;;;;;;;7.85;4.13;;;-1.60;99.90;;;;;;5015499;28;20381;-89
2021/01/16 11:45:27;;;;;;;4.43;3.03;;;-1.60;99.90;;;;;;5023846;28;20033;-90
2021/01/16 11:47:58;;;;;;;9.05;3.65;;;-1.60;99.90;;;;;;5022233;28;20649;-88
2021/01/16 11:50:33;;;;;;;7.32;3.50;;;-1.60;99.90;;;;;;5038597;28;20549;-89
2021/01/16 11:53:12;;;;;;;6.55;4.05;;;-1.70;99.90;;;;;;5015588;28;20029;-89
2021/01/16 11:55:38;;;;;;;6.43;3.65;;;-1.80;99.90;;;;;;5036972;28;20108;-90
2021/01/16 11:58:04;;;;;;;6.32;3.17;;;-1.80;99.90;;;;;;5022945;28;20759;-89
2021/01/16 12:00:31;;;;;;;8.27;3.58;;;-1.80;99.90;;;;;;5019843;28;20036;-89
2021/01/16 12:02:58;;;;;;;4.95;3.33;;;-1.80;99.90;;;;;;4999545;28;20125;-90
2021/01/16 12:05:25;;;;;;;7.03;3.28;;;-1.80;99.90;;;;;;5023932;28;20029;-90
2021/01/16 12:07:53;;;;;;;7.00;3.45;;;-1.80;99.90;;;;;;5006303;28;20126;-89
2021/01/16 12:10:25;;;;;;;6.47;3.40;;;-1.80;99.90;;;;;;5000268;28;20469;-90
2021/01/16 12:12:51;;;;;;;6.03;3.03;;;-1.90;99.90;;;;;;5021516;28;20053;-91
2021/01/16 12:15:17;;;;;;;6.53;3.30;;;-1.90;99.90;;;;;;5005828;28;20030;-92
2021/01/16 12:17:45;;;;;;;5.85;3.38;;;-1.90;99.90;;;;;;5018189;28;20091;-89
2021/01/16 12:20:13;;;;;;;8.43;3.25;;;-1.90;99.90;;;;;;5008753;28;20306;-90
2021/01/16 12:22:43;;;;;;;5.97;3.00;;;-1.90;99.90;;;;;;5018618;28;20033;-91
2021/01/16 12:25:11;;;;;;;4.30;2.70;;;-1.90;99.90;;;;;;4999830;28;20107;-91
2021/01/16 12:27:54;;;;;;;7.65;3.50;;;-1.90;99.90;;;;;;5014702;28;20040;-90
2021/01/16 12:30:22;;;;;;;6.90;3.28;;;-1.90;99.90;;;;;;5018094;28;20411;-92
2021/01/16 12:32:49;;;;;;;7.63;3.13;;;-1.90;99.90;;;;;;5022521;28;20029;-91
2021/01/16 12:35:21;;;;;;;4.57;2.47;;;-1.80;99.90;;;;;;5025971;28;20078;-89
2021/01/16 12:37:47;;;;;;;6.68;2.85;;;-1.90;99.90;;;;;;5027581;28;20127;-90
2021/01/16 12:40:18;;;;;;;5.53;3.33;;;-1.90;99.90;;;;;;5020439;28;20395;-91
2021/01/16 12:42:47;;;;;;;6.05;3.17;;;-1.80;99.90;;;;;;5006895;28;20267;-91
2021/01/16 12:45:14;;;;;;;4.45;3.13;;;-1.90;99.90;;;;;;5016243;28;20021;-90
2021/01/16 12:47:42;;;;;;;4.97;3.28;;;-1.90;99.90;;;;;;5041141;28;20536;-90
2021/01/16 12:50:10;;;;;;;5.78;2.72;;;-1.90;99.90;;;;;;5013292;28;20055;-92
2021/01/16 12:52:36;;;;;;;5.93;3.10;;;-1.90;99.90;;;;;;5011411;28;20025;-89
2021/01/16 12:55:05;;;;;;;5.88;3.00;;;-1.90;99.90;;;;;;5026256;28;20520;-89
2021/01/16 12:57:52;;;;;;;5.20;3.00;;;-2.00;99.90;;;;;;5038697;28;20107;-90
2021/01/16 13:00:18;;;;;;;5.50;3.17;;;-2.00;99.90;;;;;;5041105;28;20025;-90
2021/01/16 13:02:47;;;;;;;7.40;3.28;;;-2.10;99.90;;;;;;5020104;28;20055;-90
2021/01/16 13:05:17;;;;;;;6.60;3.20;;;-2.10;99.90;;;;;;5025376;28;20029;-88